Star Herdla — LAVD4 — position and weather

sailwx.info

Track history (hours):
 
Tides and Currents Weather Stations Pressure Air Temp Water Temp Dewpoint Dewpoint Depression Visibility Wind Speed Wind Dir Waves Ship Positions

Star Herdla

Last reported at 2016-Apr-30 14:33 UTC. Time now 2016-Apr-30 15:04 UTC.
Position N 37°54' W 009°36'.

Type: Cargo ship. MMSI: 258954000.

Date/timePositionNaut miles runAvg speedWind from/ knotsBaromVisibWave heightAir tempDewpointWater temp
2016-Apr-30 14:33N 37°54' W 009°36'1212.2
2016-Apr-30 13:32N 37°41' W 009°33'21912.9
2016-Apr-29 20:31N 35°59' W 005°31'8 8.1
2016-Apr-29 19:32N 36°05' W 005°24'0 0.0
2016-Apr-29 18:32N 36°05' W 005°24'0 0.1
2016-Apr-29 17:29N 36°05' W 005°24'0 0.1
2016-Apr-29 16:32N 36°05' W 005°24'0 0.0
2016-Apr-29 15:32N 36°05' W 005°24'0 0.0
2016-Apr-29 14:34N 36°05' W 005°24'0 0.0
2016-Apr-29 13:33N 36°05' W 005°24'0 0.0
2016-Apr-29 12:33N 36°05' W 005°24'0 0.0
2016-Apr-29 11:34N 36°05' W 005°24'0 0.0
2016-Apr-29 10:33N 36°05' W 005°24'0 0.1
2016-Apr-29 09:33N 36°05' W 005°24'0 0.0
2016-Apr-29 08:34N 36°05' W 005°24'0 0.2
2016-Apr-29 07:33N 36°05' W 005°24'0 0.2
2016-Apr-29 06:34N 36°05' W 005°24'5 5.3
2016-Apr-29 05:33N 36°05' W 005°18'5 3.8
2016-Apr-29 04:21N 36°08' W 005°13'3 2.3
2016-Apr-29 03:14N 36°05' W 005°14'5 7.4
2016-Apr-29 02:32N 36°05' W 005°20'22614.1
2016-Apr-28 10:33N 37°20' W 000°55'1915.6
2016-Apr-28 09:20N 37°32' W 000°37'1215.1
2016-Apr-28 08:33N 37°42' W 000°28'1815.4
2016-Apr-28 07:24N 37°57' W 000°15'9613.6
2016-Apr-28 00:21N 39°32' W 000°04'1011.7
2016-Apr-27 23:33N 39°39' W 000°13'1 0.0
2016-Apr-27 02:24N 39°38' W 000°13'5514.0
2016-Apr-26 22:25N 39°23' E 000°57'1415.9
2016-Apr-26 21:32N 39°19' E 001°14'1616.1
2016-Apr-26 20:32N 39°15' E 001°34'1616.0
2016-Apr-26 19:33N 39°11' E 001°54'1615.8
2016-Apr-26 18:33N 39°07' E 002°13'1616.2
2016-Apr-26 17:33N 39°02' E 002°34'1615.9
2016-Apr-26 16:33N 38°58' E 002°54'1615.5
2016-Apr-26 15:33N 38°55' E 003°13'50812.4
2016-Apr-24 22:33N 36°46' E 013°36'1414.2
2016-Apr-24 21:33N 36°41' E 013°52'1414.1
2016-Apr-24 20:34N 36°36' E 014°09'1414.0
2016-Apr-24 19:33N 36°32' E 014°25'1413.3
2016-Apr-24 18:30N 36°28' E 014°42'9814.1
2016-Apr-24 11:32N 37°33' E 016°14'47612.8
2016-Apr-22 22:28N 45°08' E 013°06'1514.6
2016-Apr-22 21:26N 45°23' E 013°02'2015.0
2016-Apr-22 20:06N 45°35' E 013°24'815.1
2016-Apr-22 19:33N 45°39' E 013°35'8 2.7
2016-Apr-22 16:31N 45°47' E 013°33'0 0.0
2016-Apr-22 15:33N 45°47' E 013°33'0 0.0
2016-Apr-22 06:17N 45°47' E 013°33'32 1.2
2016-Apr-21 03:33N 45°19' E 013°12'1413.6
2016-Apr-21 02:33N 45°06' E 013°17'  
Track history (hours):
 
Tides and Currents Weather Stations Pressure Air Temp Water Temp Dewpoint Dewpoint Depression Visibility Wind Speed Wind Dir Waves Ship Positions

Star Herdla

Last reported at 2016-Apr-30 14:33 UTC. Time now 2016-Apr-30 15:04 UTC.
Position N 37°54' W 009°36'.

Type: Cargo ship. MMSI: 258954000.

Date/timePositionNaut miles runAvg speedWind from/ knotsBaromVisibWave heightAir tempDewpointWater temp
2016-Apr-30 14:33N 37°54' W 009°36'1212.2
2016-Apr-30 13:32N 37°41' W 009°33'21912.9
2016-Apr-29 20:31N 35°59' W 005°31'8 8.1
2016-Apr-29 19:32N 36°05' W 005°24'0 0.0
2016-Apr-29 18:32N 36°05' W 005°24'0 0.1
2016-Apr-29 17:29N 36°05' W 005°24'0 0.1
2016-Apr-29 16:32N 36°05' W 005°24'0 0.0
2016-Apr-29 15:32N 36°05' W 005°24'0 0.0
2016-Apr-29 14:34N 36°05' W 005°24'0 0.0
2016-Apr-29 13:33N 36°05' W 005°24'0 0.0
2016-Apr-29 12:33N 36°05' W 005°24'0 0.0
2016-Apr-29 11:34N 36°05' W 005°24'0 0.0
2016-Apr-29 10:33N 36°05' W 005°24'0 0.1
2016-Apr-29 09:33N 36°05' W 005°24'0 0.0
2016-Apr-29 08:34N 36°05' W 005°24'0 0.2
2016-Apr-29 07:33N 36°05' W 005°24'0 0.2
2016-Apr-29 06:34N 36°05' W 005°24'5 5.3
2016-Apr-29 05:33N 36°05' W 005°18'5 3.8
2016-Apr-29 04:21N 36°08' W 005°13'3 2.3
2016-Apr-29 03:14N 36°05' W 005°14'5 7.4
2016-Apr-29 02:32N 36°05' W 005°20'22614.1
2016-Apr-28 10:33N 37°20' W 000°55'1915.6
2016-Apr-28 09:20N 37°32' W 000°37'1215.1
2016-Apr-28 08:33N 37°42' W 000°28'1815.4
2016-Apr-28 07:24N 37°57' W 000°15'9613.6
2016-Apr-28 00:21N 39°32' W 000°04'1011.7
2016-Apr-27 23:33N 39°39' W 000°13'1 0.0
2016-Apr-27 02:24N 39°38' W 000°13'5514.0
2016-Apr-26 22:25N 39°23' E 000°57'1415.9
2016-Apr-26 21:32N 39°19' E 001°14'1616.1
2016-Apr-26 20:32N 39°15' E 001°34'1616.0
2016-Apr-26 19:33N 39°11' E 001°54'1615.8
2016-Apr-26 18:33N 39°07' E 002°13'1616.2
2016-Apr-26 17:33N 39°02' E 002°34'1615.9
2016-Apr-26 16:33N 38°58' E 002°54'1615.5
2016-Apr-26 15:33N 38°55' E 003°13'50812.4
2016-Apr-24 22:33N 36°46' E 013°36'1414.2
2016-Apr-24 21:33N 36°41' E 013°52'1414.1
2016-Apr-24 20:34N 36°36' E 014°09'1414.0
2016-Apr-24 19:33N 36°32' E 014°25'1413.3
2016-Apr-24 18:30N 36°28' E 014°42'9814.1
2016-Apr-24 11:32N 37°33' E 016°14'47612.8
2016-Apr-22 22:28N 45°08' E 013°06'1514.6
2016-Apr-22 21:26N 45°23' E 013°02'2015.0
2016-Apr-22 20:06N 45°35' E 013°24'815.1
2016-Apr-22 19:33N 45°39' E 013°35'8 2.7
2016-Apr-22 16:31N 45°47' E 013°33'0 0.0
2016-Apr-22 15:33N 45°47' E 013°33'0 0.0
2016-Apr-22 06:17N 45°47' E 013°33'32 1.2
2016-Apr-21 03:33N 45°19' E 013°12'1413.6
2016-Apr-21 02:33N 45°06' E 013°17'  

Dump ship's entire track history